sensor_id;sensor_type;location;lat;lon;timestamp;P1;durP1;ratioP1;P2;durP2;ratioP2
9328;SDS011;4703;48.748;19.142;2022-10-17T00:00:55;11.53;;;10.37;;
9328;SDS011;4703;48.748;19.142;2022-10-17T00:03:21;10.60;;;9.47;;
9328;SDS011;4703;48.748;19.142;2022-10-17T00:05:48;11.17;;;10.00;;
9328;SDS011;4703;48.748;19.142;2022-10-17T00:08:16;12.03;;;10.20;;
9328;SDS011;4703;48.748;19.142;2022-10-17T00:10:44;13.60;;;11.90;;
9328;SDS011;4703;48.748;19.142;2022-10-17T00:13:11;12.07;;;10.97;;
9328;SDS011;4703;48.748;19.142;2022-10-17T00:15:41;13.77;;;11.70;;
9328;SDS011;4703;48.748;19.142;2022-10-17T00:18:10;12.00;;;10.80;;
9328;SDS011;4703;48.748;19.142;2022-10-17T00:20:37;13.57;;;11.77;;
9328;SDS011;4703;48.748;19.142;2022-10-17T00:23:04;12.60;;;11.30;;
9328;SDS011;4703;48.748;19.142;2022-10-17T00:25:31;11.70;;;9.90;;
9328;SDS011;4703;48.748;19.142;2022-10-17T00:27:58;12.97;;;10.80;;
9328;SDS011;4703;48.748;19.142;2022-10-17T00:30:25;11.80;;;10.63;;
9328;SDS011;4703;48.748;19.142;2022-10-17T00:32:52;12.07;;;10.77;;
9328;SDS011;4703;48.748;19.142;2022-10-17T00:35:19;11.10;;;9.80;;
9328;SDS011;4703;48.748;19.142;2022-10-17T00:37:46;10.30;;;9.33;;
9328;SDS011;4703;48.748;19.142;2022-10-17T00:40:13;10.63;;;9.63;;
9328;SDS011;4703;48.748;19.142;2022-10-17T00:42:40;12.50;;;11.23;;
9328;SDS011;4703;48.748;19.142;2022-10-17T00:47:44;12.73;;;10.90;;
9328;SDS011;4703;48.748;19.142;2022-10-17T00:50:17;11.37;;;9.40;;
9328;SDS011;4703;48.748;19.142;2022-10-17T00:52:44;10.67;;;9.57;;
9328;SDS011;4703;48.748;19.142;2022-10-17T00:55:24;9.60;;;8.70;;
9328;SDS011;4703;48.748;19.142;2022-10-17T00:58:02;9.90;;;8.70;;
9328;SDS011;4703;48.748;19.142;2022-10-17T01:00:31;10.47;;;9.47;;
9328;SDS011;4703;48.748;19.142;2022-10-17T01:02:58;12.53;;;10.00;;
9328;SDS011;4703;48.748;19.142;2022-10-17T01:05:25;10.00;;;9.00;;
9328;SDS011;4703;48.748;19.142;2022-10-17T01:07:53;11.50;;;10.00;;
9328;SDS011;4703;48.748;19.142;2022-10-17T01:10:21;11.13;;;10.03;;
9328;SDS011;4703;48.748;19.142;2022-10-17T01:18:31;11.20;;;9.70;;
9328;SDS011;4703;48.748;19.142;2022-10-17T01:30:28;11.40;;;9.97;;
9328;SDS011;4703;48.748;19.142;2022-10-17T01:36:29;10.23;;;9.30;;
9328;SDS011;4703;48.748;19.142;2022-10-17T01:39:14;11.03;;;9.93;;
9328;SDS011;4703;48.748;19.142;2022-10-17T01:44:47;13.43;;;10.73;;
9328;SDS011;4703;48.748;19.142;2022-10-17T01:47:22;11.77;;;10.57;;
9328;SDS011;4703;48.748;19.142;2022-10-17T01:49:56;10.97;;;9.90;;
9328;SDS011;4703;48.748;19.142;2022-10-17T01:52:44;10.93;;;9.83;;
9328;SDS011;4703;48.748;19.142;2022-10-17T01:55:25;12.57;;;10.77;;
9328;SDS011;4703;48.748;19.142;2022-10-17T01:58:10;11.00;;;9.90;;
9328;SDS011;4703;48.748;19.142;2022-10-17T02:00:42;10.60;;;9.60;;
9328;SDS011;4703;48.748;19.142;2022-10-17T02:03:12;10.60;;;9.50;;
9328;SDS011;4703;48.748;19.142;2022-10-17T02:05:43;11.57;;;10.30;;
9328;SDS011;4703;48.748;19.142;2022-10-17T02:08:10;14.50;;;10.70;;
9328;SDS011;4703;48.748;19.142;2022-10-17T02:10:40;14.13;;;12.03;;
9328;SDS011;4703;48.748;19.142;2022-10-17T02:27:47;10.40;;;9.30;;
9328;SDS011;4703;48.748;19.142;2022-10-17T02:30:32;10.97;;;9.87;;
9328;SDS011;4703;48.748;19.142;2022-10-17T02:33:38;11.70;;;9.83;;
9328;SDS011;4703;48.748;19.142;2022-10-17T02:36:37;10.57;;;9.50;;
9328;SDS011;4703;48.748;19.142;2022-10-17T02:39:08;9.77;;;8.80;;
9328;SDS011;4703;48.748;19.142;2022-10-17T02:41:38;10.87;;;8.90;;
9328;SDS011;4703;48.748;19.142;2022-10-17T02:44:08;10.53;;;9.47;;
9328;SDS011;4703;48.748;19.142;2022-10-17T02:46:36;10.10;;;8.93;;
9328;SDS011;4703;48.748;19.142;2022-10-17T02:49:20;10.90;;;9.80;;
9328;SDS011;4703;48.748;19.142;2022-10-17T02:51:51;13.37;;;9.13;;
9328;SDS011;4703;48.748;19.142;2022-10-17T02:54:30;13.23;;;9.93;;
9328;SDS011;4703;48.748;19.142;2022-10-17T02:59:50;10.97;;;9.87;;
9328;SDS011;4703;48.748;19.142;2022-10-17T03:02:17;10.60;;;9.60;;
9328;SDS011;4703;48.748;19.142;2022-10-17T03:04:45;11.07;;;9.93;;
9328;SDS011;4703;48.748;19.142;2022-10-17T03:07:12;11.20;;;10.10;;
9328;SDS011;4703;48.748;19.142;2022-10-17T03:09:39;11.20;;;10.10;;
9328;SDS011;4703;48.748;19.142;2022-10-17T03:12:06;10.80;;;9.70;;
9328;SDS011;4703;48.748;19.142;2022-10-17T03:14:33;11.17;;;10.10;;
9328;SDS011;4703;48.748;19.142;2022-10-17T03:17:00;10.30;;;9.20;;
9328;SDS011;4703;48.748;19.142;2022-10-17T03:19:27;11.23;;;10.17;;
9328;SDS011;4703;48.748;19.142;2022-10-17T03:21:54;12.50;;;9.67;;
9328;SDS011;4703;48.748;19.142;2022-10-17T03:24:21;12.70;;;11.40;;
9328;SDS011;4703;48.748;19.142;2022-10-17T03:26:48;13.20;;;11.17;;
9328;SDS011;4703;48.748;19.142;2022-10-17T03:29:15;11.53;;;10.40;;
9328;SDS011;4703;48.748;19.142;2022-10-17T03:31:42;12.23;;;10.90;;
9328;SDS011;4703;48.748;19.142;2022-10-17T03:34:09;11.83;;;10.70;;
9328;SDS011;4703;48.748;19.142;2022-10-17T03:36:36;13.27;;;10.30;;
9328;SDS011;4703;48.748;19.142;2022-10-17T03:39:03;13.57;;;11.20;;
9328;SDS011;4703;48.748;19.142;2022-10-17T03:41:30;14.73;;;12.03;;
9328;SDS011;4703;48.748;19.142;2022-10-17T03:43:57;12.10;;;10.90;;
9328;SDS011;4703;48.748;19.142;2022-10-17T03:46:23;15.60;;;11.67;;
9328;SDS011;4703;48.748;19.142;2022-10-17T03:48:50;12.17;;;10.80;;
9328;SDS011;4703;48.748;19.142;2022-10-17T03:51:17;12.13;;;10.93;;
9328;SDS011;4703;48.748;19.142;2022-10-17T03:53:44;14.33;;;10.60;;
9328;SDS011;4703;48.748;19.142;2022-10-17T03:56:13;16.47;;;11.40;;
9328;SDS011;4703;48.748;19.142;2022-10-17T03:58:46;14.60;;;13.13;;
9328;SDS011;4703;48.748;19.142;2022-10-17T04:01:14;14.70;;;11.90;;
9328;SDS011;4703;48.748;19.142;2022-10-17T04:03:43;16.10;;;12.97;;
9328;SDS011;4703;48.748;19.142;2022-10-17T04:06:18;14.97;;;12.03;;
9328;SDS011;4703;48.748;19.142;2022-10-17T04:08:46;15.27;;;13.53;;
9328;SDS011;4703;48.748;19.142;2022-10-17T04:11:15;13.63;;;11.43;;
9328;SDS011;4703;48.748;19.142;2022-10-17T04:13:45;13.10;;;11.70;;
9328;SDS011;4703;48.748;19.142;2022-10-17T04:16:13;14.13;;;12.27;;
9328;SDS011;4703;48.748;19.142;2022-10-17T04:18:42;17.83;;;13.77;;
9328;SDS011;4703;48.748;19.142;2022-10-17T04:21:09;15.90;;;13.90;;
9328;SDS011;4703;48.748;19.142;2022-10-17T04:23:37;12.97;;;11.37;;
9328;SDS011;4703;48.748;19.142;2022-10-17T04:26:05;14.10;;;11.83;;
9328;SDS011;4703;48.748;19.142;2022-10-17T04:28:32;16.50;;;11.57;;
9328;SDS011;4703;48.748;19.142;2022-10-17T04:31:03;14.40;;;12.57;;
9328;SDS011;4703;48.748;19.142;2022-10-17T04:33:37;16.53;;;12.37;;
9328;SDS011;4703;48.748;19.142;2022-10-17T04:36:05;13.90;;;12.40;;
9328;SDS011;4703;48.748;19.142;2022-10-17T04:38:38;16.43;;;12.20;;
9328;SDS011;4703;48.748;19.142;2022-10-17T04:41:07;13.23;;;11.83;;
9328;SDS011;4703;48.748;19.142;2022-10-17T04:43:37;18.70;;;13.17;;
9328;SDS011;4703;48.748;19.142;2022-10-17T04:46:06;14.80;;;12.03;;
9328;SDS011;4703;48.748;19.142;2022-10-17T04:48:37;13.17;;;11.83;;
9328;SDS011;4703;48.748;19.142;2022-10-17T04:51:06;17.37;;;13.40;;
9328;SDS011;4703;48.748;19.142;2022-10-17T04:53:40;13.40;;;11.90;;
9328;SDS011;4703;48.748;19.142;2022-10-17T04:56:13;13.57;;;12.20;;
9328;SDS011;4703;48.748;19.142;2022-10-17T04:58:43;14.03;;;12.10;;
9328;SDS011;4703;48.748;19.142;2022-10-17T05:01:12;16.60;;;12.90;;
9328;SDS011;4703;48.748;19.142;2022-10-17T05:03:46;19.60;;;14.40;;
9328;SDS011;4703;48.748;19.142;2022-10-17T05:06:14;17.10;;;12.83;;
9328;SDS011;4703;48.748;19.142;2022-10-17T05:08:44;16.20;;;13.00;;
9328;SDS011;4703;48.748;19.142;2022-10-17T05:11:14;16.37;;;12.50;;
9328;SDS011;4703;48.748;19.142;2022-10-17T05:13:49;16.10;;;13.00;;
9328;SDS011;4703;48.748;19.142;2022-10-17T05:16:19;15.07;;;12.63;;
9328;SDS011;4703;48.748;19.142;2022-10-17T05:18:50;14.10;;;12.70;;
9328;SDS011;4703;48.748;19.142;2022-10-17T05:21:19;14.77;;;12.60;;
9328;SDS011;4703;48.748;19.142;2022-10-17T05:23:48;15.33;;;13.80;;
9328;SDS011;4703;48.748;19.142;2022-10-17T05:26:16;14.23;;;12.30;;
9328;SDS011;4703;48.748;19.142;2022-10-17T05:28:44;19.10;;;13.83;;
9328;SDS011;4703;48.748;19.142;2022-10-17T05:31:11;17.17;;;13.63;;
9328;SDS011;4703;48.748;19.142;2022-10-17T05:33:38;14.30;;;12.80;;
9328;SDS011;4703;48.748;19.142;2022-10-17T05:36:06;19.47;;;12.97;;
9328;SDS011;4703;48.748;19.142;2022-10-17T05:38:33;15.73;;;13.17;;
9328;SDS011;4703;48.748;19.142;2022-10-17T05:41:01;15.17;;;13.33;;
9328;SDS011;4703;48.748;19.142;2022-10-17T05:43:30;16.90;;;12.70;;
9328;SDS011;4703;48.748;19.142;2022-10-17T05:46:02;14.67;;;13.17;;
9328;SDS011;4703;48.748;19.142;2022-10-17T05:48:30;19.50;;;13.63;;
9328;SDS011;4703;48.748;19.142;2022-10-17T05:50:59;15.83;;;14.17;;
9328;SDS011;4703;48.748;19.142;2022-10-17T05:53:30;14.87;;;13.37;;
9328;SDS011;4703;48.748;19.142;2022-10-17T05:56:03;15.43;;;13.87;;
9328;SDS011;4703;48.748;19.142;2022-10-17T05:58:33;15.07;;;13.57;;
9328;SDS011;4703;48.748;19.142;2022-10-17T06:01:20;16.10;;;14.13;;
9328;SDS011;4703;48.748;19.142;2022-10-17T06:03:47;21.50;;;14.70;;
9328;SDS011;4703;48.748;19.142;2022-10-17T06:06:14;14.23;;;12.80;;
9328;SDS011;4703;48.748;19.142;2022-10-17T06:08:42;17.83;;;12.60;;
9328;SDS011;4703;48.748;19.142;2022-10-17T06:11:10;16.13;;;13.30;;
9328;SDS011;4703;48.748;19.142;2022-10-17T06:13:38;15.50;;;13.87;;
9328;SDS011;4703;48.748;19.142;2022-10-17T06:16:05;18.37;;;13.17;;
9328;SDS011;4703;48.748;19.142;2022-10-17T06:18:33;17.20;;;12.73;;
9328;SDS011;4703;48.748;19.142;2022-10-17T06:21:04;14.83;;;12.67;;
9328;SDS011;4703;48.748;19.142;2022-10-17T06:23:36;14.70;;;12.37;;
9328;SDS011;4703;48.748;19.142;2022-10-17T06:26:04;16.00;;;14.40;;
9328;SDS011;4703;48.748;19.142;2022-10-17T06:28:34;54.43;;;42.60;;
9328;SDS011;4703;48.748;19.142;2022-10-17T06:31:06;79.77;;;59.97;;
9328;SDS011;4703;48.748;19.142;2022-10-17T06:33:38;26.60;;;19.70;;
9328;SDS011;4703;48.748;19.142;2022-10-17T06:36:06;17.20;;;13.77;;
9328;SDS011;4703;48.748;19.142;2022-10-17T06:38:35;14.93;;;13.03;;
9328;SDS011;4703;48.748;19.142;2022-10-17T06:41:03;15.53;;;12.97;;
9328;SDS011;4703;48.748;19.142;2022-10-17T06:43:36;13.90;;;12.37;;
9328;SDS011;4703;48.748;19.142;2022-10-17T06:46:04;12.90;;;11.70;;
9328;SDS011;4703;48.748;19.142;2022-10-17T06:48:35;13.33;;;11.90;;
9328;SDS011;4703;48.748;19.142;2022-10-17T06:51:02;15.60;;;13.40;;
9328;SDS011;4703;48.748;19.142;2022-10-17T06:53:33;14.07;;;12.43;;
9328;SDS011;4703;48.748;19.142;2022-10-17T06:56:00;13.50;;;11.10;;
9328;SDS011;4703;48.748;19.142;2022-10-17T06:58:30;12.60;;;11.37;;
9328;SDS011;4703;48.748;19.142;2022-10-17T07:01:00;11.63;;;10.50;;
9328;SDS011;4703;48.748;19.142;2022-10-17T07:03:31;12.70;;;11.17;;
9328;SDS011;4703;48.748;19.142;2022-10-17T07:05:58;12.30;;;10.93;;
9328;SDS011;4703;48.748;19.142;2022-10-17T07:08:25;11.70;;;10.60;;
9328;SDS011;4703;48.748;19.142;2022-10-17T07:10:52;14.30;;;12.93;;
9328;SDS011;4703;48.748;19.142;2022-10-17T07:13:20;13.50;;;12.30;;
9328;SDS011;4703;48.748;19.142;2022-10-17T07:15:48;18.10;;;16.30;;
9328;SDS011;4703;48.748;19.142;2022-10-17T07:18:15;40.40;;;31.20;;
9328;SDS011;4703;48.748;19.142;2022-10-17T07:20:42;27.20;;;22.37;;
9328;SDS011;4703;48.748;19.142;2022-10-17T07:23:09;14.93;;;13.33;;
9328;SDS011;4703;48.748;19.142;2022-10-17T07:25:36;14.30;;;12.43;;
9328;SDS011;4703;48.748;19.142;2022-10-17T07:28:05;13.73;;;11.63;;
9328;SDS011;4703;48.748;19.142;2022-10-17T07:30:32;12.83;;;11.43;;
9328;SDS011;4703;48.748;19.142;2022-10-17T07:32:59;13.37;;;12.07;;
9328;SDS011;4703;48.748;19.142;2022-10-17T07:35:26;12.80;;;11.60;;
9328;SDS011;4703;48.748;19.142;2022-10-17T07:37:53;13.17;;;11.57;;
9328;SDS011;4703;48.748;19.142;2022-10-17T07:40:20;13.60;;;12.20;;
9328;SDS011;4703;48.748;19.142;2022-10-17T07:42:47;15.33;;;13.83;;
9328;SDS011;4703;48.748;19.142;2022-10-17T07:45:14;13.10;;;11.73;;
9328;SDS011;4703;48.748;19.142;2022-10-17T07:47:41;14.10;;;11.80;;
9328;SDS011;4703;48.748;19.142;2022-10-17T07:50:08;14.73;;;13.17;;
9328;SDS011;4703;48.748;19.142;2022-10-17T07:52:35;12.43;;;11.20;;
9328;SDS011;4703;48.748;19.142;2022-10-17T07:55:02;13.33;;;11.90;;
9328;SDS011;4703;48.748;19.142;2022-10-17T07:57:30;16.40;;;14.17;;
9328;SDS011;4703;48.748;19.142;2022-10-17T07:59:57;16.43;;;14.77;;
9328;SDS011;4703;48.748;19.142;2022-10-17T08:02:24;17.70;;;15.90;;
9328;SDS011;4703;48.748;19.142;2022-10-17T08:04:53;26.90;;;22.10;;
9328;SDS011;4703;48.748;19.142;2022-10-17T08:07:20;34.00;;;27.67;;
9328;SDS011;4703;48.748;19.142;2022-10-17T08:09:54;18.40;;;16.47;;
9328;SDS011;4703;48.748;19.142;2022-10-17T08:12:21;17.13;;;14.37;;
9328;SDS011;4703;48.748;19.142;2022-10-17T08:14:49;14.70;;;13.20;;
9328;SDS011;4703;48.748;19.142;2022-10-17T08:17:16;13.27;;;11.90;;
9328;SDS011;4703;48.748;19.142;2022-10-17T08:19:43;16.10;;;14.47;;
9328;SDS011;4703;48.748;19.142;2022-10-17T08:22:10;16.37;;;14.77;;
9328;SDS011;4703;48.748;19.142;2022-10-17T08:24:37;14.67;;;13.10;;
9328;SDS011;4703;48.748;19.142;2022-10-17T08:27:03;13.10;;;11.63;;
9328;SDS011;4703;48.748;19.142;2022-10-17T08:29:37;13.60;;;12.23;;
9328;SDS011;4703;48.748;19.142;2022-10-17T08:32:05;12.43;;;11.23;;
9328;SDS011;4703;48.748;19.142;2022-10-17T08:34:35;13.63;;;11.63;;
9328;SDS011;4703;48.748;19.142;2022-10-17T08:37:02;12.40;;;11.20;;
9328;SDS011;4703;48.748;19.142;2022-10-17T08:39:29;12.80;;;11.00;;
9328;SDS011;4703;48.748;19.142;2022-10-17T08:44:56;12.17;;;11.07;;
9328;SDS011;4703;48.748;19.142;2022-10-17T08:47:45;12.67;;;10.77;;
9328;SDS011;4703;48.748;19.142;2022-10-17T08:53:23;11.50;;;10.40;;
9328;SDS011;4703;48.748;19.142;2022-10-17T08:55:55;11.87;;;10.40;;
9328;SDS011;4703;48.748;19.142;2022-10-17T08:58:30;12.07;;;10.87;;
9328;SDS011;4703;48.748;19.142;2022-10-17T09:07:00;11.50;;;10.40;;
9328;SDS011;4703;48.748;19.142;2022-10-17T09:12:48;10.60;;;9.60;;
9328;SDS011;4703;48.748;19.142;2022-10-17T09:15:54;10.87;;;9.73;;
9328;SDS011;4703;48.748;19.142;2022-10-17T09:18:46;11.70;;;10.50;;
9328;SDS011;4703;48.748;19.142;2022-10-17T09:24:47;9.97;;;9.03;;
9328;SDS011;4703;48.748;19.142;2022-10-17T09:27:31;10.43;;;9.53;;
9328;SDS011;4703;48.748;19.142;2022-10-17T09:30:22;10.73;;;9.63;;
9328;SDS011;4703;48.748;19.142;2022-10-17T09:33:12;9.90;;;8.90;;
9328;SDS011;4703;48.748;19.142;2022-10-17T09:36:20;8.10;;;7.50;;
9328;SDS011;4703;48.748;19.142;2022-10-17T09:38:52;9.47;;;8.67;;
9328;SDS011;4703;48.748;19.142;2022-10-17T09:41:35;11.47;;;10.40;;
9328;SDS011;4703;48.748;19.142;2022-10-17T09:46:39;8.20;;;7.50;;
9328;SDS011;4703;48.748;19.142;2022-10-17T09:49:13;8.87;;;7.97;;
9328;SDS011;4703;48.748;19.142;2022-10-17T09:51:52;12.50;;;9.03;;
9328;SDS011;4703;48.748;19.142;2022-10-17T09:54:20;8.30;;;7.33;;
9328;SDS011;4703;48.748;19.142;2022-10-17T09:57:05;8.20;;;7.50;;
9328;SDS011;4703;48.748;19.142;2022-10-17T09:59:45;8.63;;;7.83;;
9328;SDS011;4703;48.748;19.142;2022-10-17T10:02:25;8.03;;;7.33;;
9328;SDS011;4703;48.748;19.142;2022-10-17T10:07:36;8.60;;;7.83;;
9328;SDS011;4703;48.748;19.142;2022-10-17T10:10:06;8.20;;;7.00;;
9328;SDS011;4703;48.748;19.142;2022-10-17T10:15:51;7.97;;;7.23;;
9328;SDS011;4703;48.748;19.142;2022-10-17T10:34:55;6.30;;;5.70;;
9328;SDS011;4703;48.748;19.142;2022-10-17T10:37:45;6.30;;;5.80;;
9328;SDS011;4703;48.748;19.142;2022-10-17T10:40:20;7.27;;;6.60;;
9328;SDS011;4703;48.748;19.142;2022-10-17T10:43:04;8.03;;;6.13;;
9328;SDS011;4703;48.748;19.142;2022-10-17T10:48:26;6.87;;;6.30;;
9328;SDS011;4703;48.748;19.142;2022-10-17T10:51:13;7.60;;;5.80;;
9328;SDS011;4703;48.748;19.142;2022-10-17T10:53:44;6.60;;;6.00;;
9328;SDS011;4703;48.748;19.142;2022-10-17T10:56:28;5.97;;;5.47;;
9328;SDS011;4703;48.748;19.142;2022-10-17T11:02:07;6.70;;;6.10;;
9328;SDS011;4703;48.748;19.142;2022-10-17T11:04:55;6.90;;;6.27;;
9328;SDS011;4703;48.748;19.142;2022-10-17T11:13:26;5.93;;;5.50;;
9328;SDS011;4703;48.748;19.142;2022-10-17T11:19:02;6.57;;;6.07;;
9328;SDS011;4703;48.748;19.142;2022-10-17T11:21:54;7.20;;;6.60;;
9328;SDS011;4703;48.748;19.142;2022-10-17T11:24:42;6.63;;;6.10;;
9328;SDS011;4703;48.748;19.142;2022-10-17T11:27:27;6.30;;;5.80;;
9328;SDS011;4703;48.748;19.142;2022-10-17T11:29:56;7.90;;;7.17;;
9328;SDS011;4703;48.748;19.142;2022-10-17T11:32:28;6.30;;;5.80;;
9328;SDS011;4703;48.748;19.142;2022-10-17T11:35:07;7.23;;;6.57;;
9328;SDS011;4703;48.748;19.142;2022-10-17T11:37:57;7.60;;;6.87;;
9328;SDS011;4703;48.748;19.142;2022-10-17T11:41:04;6.40;;;5.90;;
9328;SDS011;4703;48.748;19.142;2022-10-17T11:43:44;6.80;;;6.30;;
9328;SDS011;4703;48.748;19.142;2022-10-17T11:46:29;8.10;;;6.47;;
9328;SDS011;4703;48.748;19.142;2022-10-17T11:51:47;6.70;;;6.20;;
9328;SDS011;4703;48.748;19.142;2022-10-17T12:00:22;6.43;;;5.80;;
9328;SDS011;4703;48.748;19.142;2022-10-17T12:08:43;6.27;;;5.77;;
9328;SDS011;4703;48.748;19.142;2022-10-17T12:14:41;8.03;;;5.87;;
9328;SDS011;4703;48.748;19.142;2022-10-17T12:20:24;6.10;;;5.60;;
9328;SDS011;4703;48.748;19.142;2022-10-17T12:28:30;6.40;;;5.43;;
9328;SDS011;4703;48.748;19.142;2022-10-17T12:33:48;8.50;;;7.27;;
9328;SDS011;4703;48.748;19.142;2022-10-17T12:46:49;6.70;;;6.10;;
9328;SDS011;4703;48.748;19.142;2022-10-17T12:55:04;6.47;;;5.87;;
9328;SDS011;4703;48.748;19.142;2022-10-17T13:03:43;7.07;;;5.57;;
9328;SDS011;4703;48.748;19.142;2022-10-17T13:06:19;6.10;;;5.50;;
9328;SDS011;4703;48.748;19.142;2022-10-17T13:08:58;7.20;;;6.50;;
9328;SDS011;4703;48.748;19.142;2022-10-17T13:11:31;5.80;;;5.20;;
9328;SDS011;4703;48.748;19.142;2022-10-17T13:14:01;7.40;;;6.70;;
9328;SDS011;4703;48.748;19.142;2022-10-17T13:16:35;7.17;;;6.57;;
9328;SDS011;4703;48.748;19.142;2022-10-17T13:19:12;6.60;;;5.97;;
9328;SDS011;4703;48.748;19.142;2022-10-17T13:21:49;6.70;;;6.20;;
9328;SDS011;4703;48.748;19.142;2022-10-17T13:24:36;6.73;;;6.27;;
9328;SDS011;4703;48.748;19.142;2022-10-17T13:27:18;6.17;;;5.67;;
9328;SDS011;4703;48.748;19.142;2022-10-17T13:29:56;6.20;;;5.70;;
9328;SDS011;4703;48.748;19.142;2022-10-17T13:32:33;6.20;;;5.70;;
9328;SDS011;4703;48.748;19.142;2022-10-17T13:35:03;6.20;;;5.70;;
9328;SDS011;4703;48.748;19.142;2022-10-17T13:37:33;6.03;;;5.50;;
9328;SDS011;4703;48.748;19.142;2022-10-17T13:40:01;6.03;;;5.53;;
9328;SDS011;4703;48.748;19.142;2022-10-17T13:42:49;6.83;;;6.33;;
9328;SDS011;4703;48.748;19.142;2022-10-17T13:48:00;6.90;;;6.30;;
9328;SDS011;4703;48.748;19.142;2022-10-17T13:50:35;6.73;;;6.20;;
9328;SDS011;4703;48.748;19.142;2022-10-17T13:53:15;6.50;;;5.87;;
9328;SDS011;4703;48.748;19.142;2022-10-17T13:55:58;5.83;;;5.43;;
9328;SDS011;4703;48.748;19.142;2022-10-17T13:58:47;5.80;;;5.30;;
9328;SDS011;4703;48.748;19.142;2022-10-17T14:01:23;6.00;;;5.50;;
9328;SDS011;4703;48.748;19.142;2022-10-17T14:03:53;6.87;;;6.33;;
9328;SDS011;4703;48.748;19.142;2022-10-17T14:06:33;5.90;;;5.50;;
9328;SDS011;4703;48.748;19.142;2022-10-17T14:09:26;6.43;;;5.93;;
9328;SDS011;4703;48.748;19.142;2022-10-17T14:11:57;6.00;;;5.60;;
9328;SDS011;4703;48.748;19.142;2022-10-17T14:14:48;7.53;;;6.27;;
9328;SDS011;4703;48.748;19.142;2022-10-17T14:17:35;11.33;;;10.20;;
9328;SDS011;4703;48.748;19.142;2022-10-17T14:20:04;6.73;;;6.13;;
9328;SDS011;4703;48.748;19.142;2022-10-17T14:22:53;6.80;;;6.30;;
9328;SDS011;4703;48.748;19.142;2022-10-17T14:25:44;7.50;;;6.83;;
9328;SDS011;4703;48.748;19.142;2022-10-17T14:30:46;6.50;;;6.00;;
9328;SDS011;4703;48.748;19.142;2022-10-17T14:33:26;6.33;;;5.73;;
9328;SDS011;4703;48.748;19.142;2022-10-17T14:35:57;6.47;;;5.97;;
9328;SDS011;4703;48.748;19.142;2022-10-17T14:38:26;6.13;;;5.57;;
9328;SDS011;4703;48.748;19.142;2022-10-17T14:41:02;6.70;;;6.20;;
9328;SDS011;4703;48.748;19.142;2022-10-17T14:44:03;6.27;;;5.77;;
9328;SDS011;4703;48.748;19.142;2022-10-17T14:46:33;7.53;;;6.30;;
9328;SDS011;4703;48.748;19.142;2022-10-17T14:49:14;7.43;;;6.00;;
9328;SDS011;4703;48.748;19.142;2022-10-17T14:54:47;8.90;;;8.10;;
9328;SDS011;4703;48.748;19.142;2022-10-17T14:59:53;17.33;;;15.80;;
9328;SDS011;4703;48.748;19.142;2022-10-17T15:02:26;9.70;;;8.70;;
9328;SDS011;4703;48.748;19.142;2022-10-17T15:04:55;8.13;;;7.20;;
9328;SDS011;4703;48.748;19.142;2022-10-17T15:07:22;8.07;;;6.90;;
9328;SDS011;4703;48.748;19.142;2022-10-17T15:09:50;8.37;;;7.57;;
9328;SDS011;4703;48.748;19.142;2022-10-17T15:12:22;8.60;;;7.60;;
9328;SDS011;4703;48.748;19.142;2022-10-17T15:14:51;9.43;;;8.53;;
9328;SDS011;4703;48.748;19.142;2022-10-17T15:17:20;8.93;;;8.00;;
9328;SDS011;4703;48.748;19.142;2022-10-17T15:19:55;10.07;;;9.20;;
9328;SDS011;4703;48.748;19.142;2022-10-17T15:22:23;10.30;;;9.30;;
9328;SDS011;4703;48.748;19.142;2022-10-17T15:24:50;13.10;;;10.40;;
9328;SDS011;4703;48.748;19.142;2022-10-17T15:27:18;14.17;;;12.67;;
9328;SDS011;4703;48.748;19.142;2022-10-17T15:29:48;13.17;;;11.97;;
9328;SDS011;4703;48.748;19.142;2022-10-17T15:32:16;12.87;;;11.00;;
9328;SDS011;4703;48.748;19.142;2022-10-17T15:34:44;11.90;;;10.80;;
9328;SDS011;4703;48.748;19.142;2022-10-17T15:37:19;9.93;;;9.20;;
9328;SDS011;4703;48.748;19.142;2022-10-17T15:39:49;9.50;;;8.73;;
9328;SDS011;4703;48.748;19.142;2022-10-17T15:42:25;9.47;;;8.67;;
9328;SDS011;4703;48.748;19.142;2022-10-17T15:44:54;8.90;;;8.03;;
9328;SDS011;4703;48.748;19.142;2022-10-17T15:47:23;11.00;;;10.00;;
9328;SDS011;4703;48.748;19.142;2022-10-17T15:49:54;11.20;;;9.30;;
9328;SDS011;4703;48.748;19.142;2022-10-17T15:52:21;10.83;;;9.83;;
9328;SDS011;4703;48.748;19.142;2022-10-17T15:54:49;10.63;;;9.60;;
9328;SDS011;4703;48.748;19.142;2022-10-17T15:57:28;10.70;;;9.70;;
9328;SDS011;4703;48.748;19.142;2022-10-17T15:59:57;11.27;;;10.37;;
9328;SDS011;4703;48.748;19.142;2022-10-17T16:02:25;10.40;;;9.23;;
9328;SDS011;4703;48.748;19.142;2022-10-17T16:04:53;11.70;;;10.60;;
9328;SDS011;4703;48.748;19.142;2022-10-17T16:07:20;11.17;;;10.03;;
9328;SDS011;4703;48.748;19.142;2022-10-17T16:09:47;11.57;;;10.10;;
9328;SDS011;4703;48.748;19.142;2022-10-17T16:12:19;12.33;;;11.13;;
9328;SDS011;4703;48.748;19.142;2022-10-17T16:14:53;12.70;;;10.90;;
9328;SDS011;4703;48.748;19.142;2022-10-17T16:17:20;12.23;;;10.97;;
9328;SDS011;4703;48.748;19.142;2022-10-17T16:19:47;14.17;;;12.77;;
9328;SDS011;4703;48.748;19.142;2022-10-17T16:22:16;36.30;;;32.40;;
9328;SDS011;4703;48.748;19.142;2022-10-17T16:24:53;31.03;;;26.90;;
9328;SDS011;4703;48.748;19.142;2022-10-17T16:27:24;17.70;;;15.53;;
9328;SDS011;4703;48.748;19.142;2022-10-17T16:29:51;15.00;;;12.20;;
9328;SDS011;4703;48.748;19.142;2022-10-17T16:32:18;13.20;;;11.90;;
9328;SDS011;4703;48.748;19.142;2022-10-17T16:34:45;13.70;;;12.40;;
9328;SDS011;4703;48.748;19.142;2022-10-17T16:37:12;14.33;;;12.80;;
9328;SDS011;4703;48.748;19.142;2022-10-17T16:39:39;12.60;;;11.37;;
9328;SDS011;4703;48.748;19.142;2022-10-17T16:42:06;12.43;;;11.20;;
9328;SDS011;4703;48.748;19.142;2022-10-17T16:44:32;11.60;;;10.50;;
9328;SDS011;4703;48.748;19.142;2022-10-17T16:46:59;13.40;;;11.30;;
9328;SDS011;4703;48.748;19.142;2022-10-17T16:49:26;15.57;;;11.97;;
9328;SDS011;4703;48.748;19.142;2022-10-17T16:51:53;12.83;;;11.63;;
9328;SDS011;4703;48.748;19.142;2022-10-17T16:54:20;11.47;;;10.30;;
9328;SDS011;4703;48.748;19.142;2022-10-17T16:56:49;11.87;;;10.87;;
9328;SDS011;4703;48.748;19.142;2022-10-17T16:59:16;12.90;;;10.10;;
9328;SDS011;4703;48.748;19.142;2022-10-17T17:01:42;11.10;;;10.03;;
9328;SDS011;4703;48.748;19.142;2022-10-17T17:04:09;13.73;;;10.77;;
9328;SDS011;4703;48.748;19.142;2022-10-17T17:06:36;11.20;;;9.70;;
9328;SDS011;4703;48.748;19.142;2022-10-17T17:09:03;12.33;;;10.00;;
9328;SDS011;4703;48.748;19.142;2022-10-17T17:11:30;11.20;;;10.17;;
9328;SDS011;4703;48.748;19.142;2022-10-17T17:13:57;10.90;;;9.90;;
9328;SDS011;4703;48.748;19.142;2022-10-17T17:16:27;10.97;;;9.87;;
9328;SDS011;4703;48.748;19.142;2022-10-17T17:18:56;12.03;;;10.83;;
9328;SDS011;4703;48.748;19.142;2022-10-17T17:21:32;15.53;;;10.63;;
9328;SDS011;4703;48.748;19.142;2022-10-17T17:24:00;11.37;;;10.30;;
9328;SDS011;4703;48.748;19.142;2022-10-17T17:26:29;11.40;;;10.30;;
9328;SDS011;4703;48.748;19.142;2022-10-17T17:29:01;12.93;;;11.63;;
9328;SDS011;4703;48.748;19.142;2022-10-17T17:31:30;12.30;;;11.10;;
9328;SDS011;4703;48.748;19.142;2022-10-17T17:33:59;12.07;;;10.97;;
9328;SDS011;4703;48.748;19.142;2022-10-17T17:36:28;11.33;;;10.23;;
9328;SDS011;4703;48.748;19.142;2022-10-17T17:39:00;11.63;;;10.50;;
9328;SDS011;4703;48.748;19.142;2022-10-17T17:41:32;11.80;;;10.70;;
9328;SDS011;4703;48.748;19.142;2022-10-17T17:44:00;12.03;;;10.03;;
9328;SDS011;4703;48.748;19.142;2022-10-17T17:46:28;11.10;;;10.00;;
9328;SDS011;4703;48.748;19.142;2022-10-17T17:48:55;11.80;;;10.23;;
9328;SDS011;4703;48.748;19.142;2022-10-17T17:51:23;13.97;;;12.57;;
9328;SDS011;4703;48.748;19.142;2022-10-17T17:53:54;12.27;;;10.53;;